createdAt,value
2018-05-02T00:02:22.824Z,5.00
2018-05-02T00:07:24.297Z,5.20
2018-05-02T00:12:26.340Z,5.10
2018-05-02T00:17:27.863Z,4.90
2018-05-02T00:22:29.387Z,4.80
2018-05-02T00:27:30.892Z,4.80
2018-05-02T00:32:33.285Z,4.50
2018-05-02T00:37:35.558Z,4.60
2018-05-02T00:42:44.672Z,4.60
2018-05-02T00:47:46.398Z,4.50
2018-05-02T00:52:47.923Z,4.50
2018-05-02T00:57:49.431Z,4.40
2018-05-02T01:02:51.086Z,4.30
2018-05-02T01:07:53.330Z,4.10
2018-05-02T01:12:55.068Z,4.00
2018-05-02T01:17:56.652Z,4.10
2018-05-02T01:22:58.184Z,4.10
2018-05-02T01:28:00.440Z,4.00
2018-05-02T01:33:01.943Z,3.90
2018-05-02T01:38:03.462Z,4.00
2018-05-02T01:43:05.025Z,3.90
2018-05-02T01:48:06.623Z,3.90
2018-05-02T01:53:08.162Z,4.00
2018-05-02T01:58:09.698Z,4.00
2018-05-02T02:03:11.444Z,4.00
2018-05-02T02:08:13.953Z,4.10
2018-05-02T02:13:15.532Z,4.00
2018-05-02T02:18:17.048Z,4.20
2018-05-02T02:23:18.559Z,4.20
2018-05-02T02:28:20.154Z,4.30
2018-05-02T02:33:21.799Z,4.20
2018-05-02T02:38:23.311Z,4.20
2018-05-02T02:43:24.839Z,4.10
2018-05-02T02:48:26.581Z,4.00
2018-05-02T02:53:28.855Z,3.90
2018-05-02T02:58:31.145Z,3.90
2018-05-02T03:03:33.419Z,4.00
2018-05-02T03:08:35.023Z,4.00
2018-05-02T03:13:36.712Z,4.00
2018-05-02T03:18:38.228Z,4.00
2018-05-02T03:23:39.969Z,3.90
2018-05-02T03:28:41.491Z,3.90
2018-05-02T03:33:43.739Z,4.00
2018-05-02T03:38:45.268Z,3.90
2018-05-02T03:43:46.926Z,4.10
2018-05-02T03:48:48.419Z,4.00
2018-05-02T03:53:49.931Z,4.10
2018-05-02T03:58:51.464Z,4.10
2018-05-02T04:04:11.307Z,4.40
2018-05-02T04:09:13.588Z,4.50
2018-05-02T04:14:15.902Z,4.50
2018-05-02T04:19:17.382Z,4.40
2018-05-02T04:24:18.925Z,4.70
2018-05-02T04:29:21.285Z,4.80
2018-05-02T04:34:22.767Z,4.90
2018-05-02T04:39:25.041Z,5.20
2018-05-02T04:44:27.508Z,5.40
2018-05-02T04:49:28.999Z,5.30
2018-05-02T04:54:30.674Z,5.70
2018-05-02T04:59:32.961Z,5.90
2018-05-02T05:04:34.596Z,5.90
2018-05-02T05:09:36.325Z,6.10
2018-05-02T05:14:37.987Z,6.10
2018-05-02T05:19:39.656Z,6.30
2018-05-02T05:24:41.155Z,6.50
2018-05-02T05:29:42.644Z,6.90
2018-05-02T05:34:44.173Z,7.40
2018-05-02T05:39:45.824Z,7.50
2018-05-02T05:44:47.339Z,7.60
2018-05-02T05:49:48.859Z,7.90
2018-05-02T05:54:58.182Z,8.50
2018-05-02T05:59:59.991Z,8.40
2018-05-02T06:05:01.536Z,8.70
2018-05-02T06:10:03.092Z,9.80
2018-05-02T06:15:04.955Z,11.80
2018-05-02T06:20:06.662Z,13.80
2018-05-02T06:25:08.931Z,15.40
2018-05-02T06:30:11.218Z,16.30
2018-05-02T06:35:13.619Z,16.00
2018-05-02T06:40:15.975Z,16.60
2018-05-02T06:45:17.525Z,16.50
2018-05-02T06:50:19.139Z,16.10
2018-05-02T06:55:21.487Z,15.70
2018-05-02T07:00:23.027Z,15.60
2018-05-02T07:05:24.540Z,14.60
2018-05-02T07:10:26.240Z,13.60
2018-05-02T07:15:28.635Z,13.00
2018-05-02T07:20:30.406Z,12.90
2018-05-02T07:25:38.820Z,14.50
2018-05-02T07:30:41.131Z,14.80
2018-05-02T07:35:42.769Z,14.80
2018-05-02T07:40:44.555Z,14.50
2018-05-02T07:45:46.828Z,14.30
2018-05-02T07:50:48.522Z,14.20
2018-05-02T07:55:50.035Z,14.20
2018-05-02T08:00:51.579Z,14.10
2018-05-02T08:05:53.135Z,13.80
2018-05-02T08:10:54.852Z,14.20
2018-05-02T08:15:56.364Z,14.60
2018-05-02T08:20:57.882Z,14.70
2018-05-02T08:25:59.455Z,15.30
2018-05-02T08:31:01.020Z,15.10
2018-05-02T08:36:02.755Z,15.00
2018-05-02T08:41:04.291Z,14.60
2018-05-02T08:46:06.567Z,14.80
2018-05-02T08:51:08.384Z,14.70
2018-05-02T08:56:09.932Z,15.30
2018-05-02T09:01:11.531Z,15.30
2018-05-02T09:06:13.069Z,15.60
2018-05-02T09:11:14.584Z,16.10
2018-05-02T09:16:16.131Z,15.90
2018-05-02T09:21:17.783Z,16.10
2018-05-02T09:26:19.288Z,16.00
2018-05-02T09:31:20.816Z,16.40
2018-05-02T09:36:22.450Z,16.40
2018-05-02T09:41:23.983Z,16.50
2018-05-02T09:46:25.688Z,16.10
2018-05-02T09:51:27.210Z,16.30
2018-05-02T09:56:28.842Z,16.50
2018-05-02T10:01:31.150Z,16.30
2018-05-02T10:06:32.728Z,16.30
2018-05-02T10:11:34.271Z,16.40
2018-05-02T10:16:36.687Z,16.70
2018-05-02T10:21:38.228Z,16.60
2018-05-02T10:26:40.505Z,17.30
2018-05-02T10:31:42.781Z,17.50
2018-05-02T10:36:45.120Z,17.70
2018-05-02T10:41:48.276Z,17.60
2018-05-02T10:46:50.534Z,17.60
2018-05-02T10:51:54.605Z,17.90
2018-05-02T10:56:56.520Z,18.60
2018-05-02T11:01:58.503Z,18.40
2018-05-02T11:07:01.220Z,17.90
2018-05-02T11:12:04.017Z,18.10
2018-05-02T11:17:06.855Z,18.50
2018-05-02T11:22:08.404Z,18.60
2018-05-02T11:27:12.742Z,19.80
2018-05-02T11:32:15.469Z,19.70
2018-05-02T11:37:20.227Z,19.80
2018-05-02T11:42:25.169Z,19.70
2018-05-02T11:47:27.332Z,19.90
2018-05-02T11:52:31.932Z,19.60
2018-05-02T11:57:36.176Z,19.70
2018-05-02T12:02:38.361Z,19.50
2018-05-02T12:07:42.641Z,19.70
2018-05-02T12:12:47.213Z,20.00
2018-05-02T12:17:52.407Z,19.90
2018-05-02T12:22:57.299Z,19.20
2018-05-02T12:28:00.724Z,19.10
2018-05-02T12:33:04.347Z,18.90
2018-05-02T12:38:07.472Z,18.90
2018-05-02T12:43:12.203Z,18.50
2018-05-02T12:48:15.100Z,18.50
2018-05-02T12:53:18.468Z,18.90
2018-05-02T12:58:20.228Z,19.60
2018-05-02T13:03:21.877Z,19.00
2018-05-02T13:08:25.708Z,19.30
2018-05-02T13:13:30.544Z,19.20
2018-05-02T13:18:34.887Z,19.20
2018-05-02T13:23:39.570Z,20.00
2018-05-02T13:28:43.430Z,19.50
2018-05-02T13:33:46.338Z,18.60
2018-05-02T13:38:50.255Z,18.60
2018-05-02T13:43:56.228Z,19.20
2018-05-02T13:48:59.471Z,19.50
2018-05-02T13:54:03.472Z,20.10
2018-05-02T13:59:07.572Z,19.50
2018-05-02T14:04:11.678Z,19.40
2018-05-02T14:09:17.690Z,19.50
2018-05-02T14:14:22.795Z,19.90
2018-05-02T14:19:27.592Z,19.50
2018-05-02T14:24:32.054Z,19.30
2018-05-02T14:29:36.376Z,19.20
2018-05-02T14:34:41.683Z,18.90
2018-05-02T14:39:46.374Z,18.90
2018-05-02T14:44:48.738Z,18.50
2018-05-02T14:49:54.186Z,18.70
2018-05-02T14:54:59.230Z,18.70
2018-05-02T15:00:03.699Z,18.70
2018-05-02T15:05:06.107Z,18.60
2018-05-02T15:10:07.773Z,18.60
2018-05-02T15:15:11.968Z,18.90
2018-05-02T15:20:16.504Z,19.10
2018-05-02T15:25:18.858Z,19.00
2018-05-02T15:30:23.195Z,19.00
2018-05-02T15:35:27.803Z,18.90
2018-05-02T15:40:33.395Z,18.90
2018-05-02T15:45:38.020Z,18.60
2018-05-02T15:50:39.599Z,18.60
2018-05-02T15:55:41.314Z,18.70
2018-05-02T16:00:45.113Z,19.30
2018-05-02T16:05:48.710Z,19.20
2018-05-02T16:10:51.970Z,19.30
2018-05-02T16:15:55.556Z,19.10
2018-05-02T16:20:59.234Z,18.80
2018-05-02T16:26:02.644Z,18.60
2018-05-02T16:31:05.854Z,18.60
2018-05-02T16:36:10.065Z,18.40
2018-05-02T16:41:13.921Z,18.50
2018-05-02T16:46:18.083Z,18.30
2018-05-02T16:51:22.180Z,18.20
2018-05-02T16:56:26.266Z,18.10
2018-05-02T17:01:29.307Z,18.00
2018-05-02T17:06:33.596Z,17.90
2018-05-02T17:11:38.289Z,17.60
2018-05-02T17:16:45.149Z,17.40
2018-05-02T17:21:46.932Z,17.30
2018-05-02T17:26:48.492Z,17.30
2018-05-02T17:31:50.159Z,17.10
2018-05-02T17:36:51.728Z,17.00
2018-05-02T17:41:53.345Z,16.70
2018-05-02T17:46:55.076Z,16.60
2018-05-02T17:51:56.604Z,16.50
2018-05-02T17:56:58.195Z,16.30
2018-05-02T18:01:59.724Z,16.20
2018-05-02T18:07:01.325Z,16.10
2018-05-02T18:12:03.217Z,16.10
2018-05-02T18:17:04.740Z,16.00
2018-05-02T18:22:06.294Z,15.90
2018-05-02T18:27:07.888Z,15.80
2018-05-02T18:32:10.240Z,15.70
2018-05-02T18:37:11.829Z,15.60
2018-05-02T18:42:13.377Z,15.60
2018-05-02T18:47:15.012Z,15.50
2018-05-02T18:52:17.429Z,15.10
2018-05-02T18:57:19.143Z,15.00
2018-05-02T19:02:21.551Z,14.50
2018-05-02T19:07:23.527Z,14.50
2018-05-02T19:12:25.201Z,14.50
2018-05-02T19:17:26.759Z,14.40
2018-05-02T19:22:29.507Z,14.30
2018-05-02T19:27:31.463Z,14.20
2018-05-02T19:32:40.100Z,14.20
2018-05-02T19:37:41.714Z,14.10
2018-05-02T19:42:49.483Z,14.00
2018-05-02T19:47:51.013Z,13.90
2018-05-02T19:52:53.354Z,13.50
2018-05-02T19:57:55.007Z,13.50
2018-05-02T20:03:00.539Z,13.40
2018-05-02T20:08:02.229Z,13.40
2018-05-02T20:13:09.904Z,13.00
2018-05-02T20:18:12.187Z,12.90
2018-05-02T20:23:13.873Z,12.80
2018-05-02T20:28:16.186Z,12.90
2018-05-02T20:33:17.752Z,12.80
2018-05-02T20:38:19.356Z,12.90
2018-05-02T20:43:21.037Z,12.70
2018-05-02T20:48:22.749Z,12.50
2018-05-02T20:53:24.343Z,12.50
2018-05-02T20:58:25.987Z,12.60
2018-05-02T21:03:27.488Z,12.70
2018-05-02T21:08:29.233Z,12.80
2018-05-02T21:13:30.753Z,12.80
2018-05-02T21:18:32.469Z,12.70
2018-05-02T21:23:34.013Z,12.70
2018-05-02T21:28:36.301Z,12.80
2018-05-02T21:33:38.592Z,12.90
2018-05-02T21:38:40.984Z,12.90
2018-05-02T21:43:42.587Z,12.80
2018-05-02T21:48:44.226Z,12.80
2018-05-02T21:53:46.617Z,12.60
2018-05-02T21:58:48.195Z,12.50
2018-05-02T22:03:49.762Z,12.50
2018-05-02T22:08:51.250Z,12.50
2018-05-02T22:13:52.796Z,12.50
2018-05-02T22:18:54.357Z,12.50
2018-05-02T22:23:55.888Z,12.40
2018-05-02T22:28:57.592Z,12.30
2018-05-02T22:33:59.900Z,12.00
2018-05-02T22:39:01.464Z,12.00
2018-05-02T22:44:02.996Z,11.90
2018-05-02T22:49:05.285Z,11.90
2018-05-02T22:54:07.603Z,11.90
2018-05-02T22:59:09.175Z,11.90
2018-05-02T23:04:10.700Z,12.00
2018-05-02T23:09:12.235Z,12.10
2018-05-02T23:14:14.532Z,12.10
2018-05-02T23:19:16.052Z,12.00
2018-05-02T23:24:17.563Z,12.00
2018-05-02T23:29:19.088Z,11.90
2018-05-02T23:34:20.598Z,11.80
2018-05-02T23:39:22.157Z,11.80
2018-05-02T23:44:23.715Z,11.70
2018-05-02T23:49:25.325Z,11.60
2018-05-02T23:54:26.949Z,11.40
2018-05-02T23:59:28.539Z,11.20
